Pollock, Mississippi
Current Conditions -  °F | °C
As of 3:53 PM on Sunday 25 Jan 2015 (Local Time) from KGLH Reporting Station
Light Rain Light Rain  
Wind Chill: 60°   Ceiling: 8000
Heat Index: 60°   Visibility: 10mi
Dew Point: 38°   Wind: 16mph
Humidity: 44%   Direction: 280°W
Pressure: 29.79"   Gusts: 23mph
Location:  33.4825°N, 90.6856°W
Report Text: KGLH 252153Z AUTO 28014G20KT 10SM -RA SCT060 BKN080 BKN095 16/03 A2979 RMK AO2 RAB44 SLP094 P0000 T01560033
Loading
Personal Weather Stations






























Interactive Weather Map New forecast layout! Learn more

10-Day Weather Forecast

Advertisements
Track Severe Weather on mobile